sensor_id;sensor_type;location;lat;lon;timestamp;P1;durP1;ratioP1;P2;durP2;ratioP2
23866;SDS011;12114;53.404;-1.502;2023-02-07T00:02:14;10.07;;;5.30;;
23866;SDS011;12114;53.404;-1.502;2023-02-07T00:04:39;19.85;;;5.75;;
23866;SDS011;12114;53.404;-1.502;2023-02-07T00:07:04;11.77;;;4.93;;
23866;SDS011;12114;53.404;-1.502;2023-02-07T00:09:30;12.65;;;5.57;;
23866;SDS011;12114;53.404;-1.502;2023-02-07T00:11:55;12.80;;;5.40;;
23866;SDS011;12114;53.404;-1.502;2023-02-07T00:14:20;17.52;;;7.10;;
23866;SDS011;12114;53.404;-1.502;2023-02-07T00:16:46;15.43;;;6.68;;
23866;SDS011;12114;53.404;-1.502;2023-02-07T00:19:11;13.07;;;5.00;;
23866;SDS011;12114;53.404;-1.502;2023-02-07T00:21:36;14.07;;;4.30;;
23866;SDS011;12114;53.404;-1.502;2023-02-07T00:24:02;9.90;;;4.30;;
23866;SDS011;12114;53.404;-1.502;2023-02-07T00:26:27;14.02;;;5.10;;
23866;SDS011;12114;53.404;-1.502;2023-02-07T00:28:53;15.13;;;5.15;;
23866;SDS011;12114;53.404;-1.502;2023-02-07T00:33:44;14.93;;;6.10;;
23866;SDS011;12114;53.404;-1.502;2023-02-07T00:36:11;13.05;;;4.57;;
23866;SDS011;12114;53.404;-1.502;2023-02-07T00:38:37;14.13;;;6.18;;
23866;SDS011;12114;53.404;-1.502;2023-02-07T00:41:03;17.00;;;6.82;;
23866;SDS011;12114;53.404;-1.502;2023-02-07T00:43:28;18.90;;;7.10;;
23866;SDS011;12114;53.404;-1.502;2023-02-07T00:45:54;14.05;;;6.65;;
23866;SDS011;12114;53.404;-1.502;2023-02-07T00:48:20;17.38;;;6.25;;
23866;SDS011;12114;53.404;-1.502;2023-02-07T00:50:45;17.25;;;8.13;;
23866;SDS011;12114;53.404;-1.502;2023-02-07T00:53:10;14.60;;;6.43;;
23866;SDS011;12114;53.404;-1.502;2023-02-07T00:55:36;11.30;;;5.20;;
23866;SDS011;12114;53.404;-1.502;2023-02-07T00:58:01;14.57;;;5.82;;
23866;SDS011;12114;53.404;-1.502;2023-02-07T01:00:26;11.43;;;5.13;;
23866;SDS011;12114;53.404;-1.502;2023-02-07T01:02:51;17.05;;;5.35;;
23866;SDS011;12114;53.404;-1.502;2023-02-07T01:05:17;15.60;;;6.55;;
23866;SDS011;12114;53.404;-1.502;2023-02-07T01:07:42;19.20;;;7.13;;
23866;SDS011;12114;53.404;-1.502;2023-02-07T01:10:07;18.35;;;7.75;;
23866;SDS011;12114;53.404;-1.502;2023-02-07T01:12:34;16.42;;;6.85;;
23866;SDS011;12114;53.404;-1.502;2023-02-07T01:14:59;16.80;;;7.88;;
23866;SDS011;12114;53.404;-1.502;2023-02-07T01:17:24;14.50;;;6.60;;
23866;SDS011;12114;53.404;-1.502;2023-02-07T01:19:50;15.95;;;6.55;;
23866;SDS011;12114;53.404;-1.502;2023-02-07T01:22:19;16.83;;;7.38;;
23866;SDS011;12114;53.404;-1.502;2023-02-07T01:24:45;19.35;;;6.63;;
23866;SDS011;12114;53.404;-1.502;2023-02-07T01:27:10;12.75;;;6.53;;
23866;SDS011;12114;53.404;-1.502;2023-02-07T01:29:35;14.10;;;6.80;;
23866;SDS011;12114;53.404;-1.502;2023-02-07T01:32:00;17.95;;;7.03;;
23866;SDS011;12114;53.404;-1.502;2023-02-07T01:34:26;14.30;;;6.63;;
23866;SDS011;12114;53.404;-1.502;2023-02-07T01:36:51;18.15;;;6.90;;
23866;SDS011;12114;53.404;-1.502;2023-02-07T01:39:16;19.02;;;7.38;;
23866;SDS011;12114;53.404;-1.502;2023-02-07T01:41:42;14.00;;;6.75;;
23866;SDS011;12114;53.404;-1.502;2023-02-07T01:44:18;16.02;;;6.32;;
23866;SDS011;12114;53.404;-1.502;2023-02-07T01:46:53;14.77;;;6.57;;
23866;SDS011;12114;53.404;-1.502;2023-02-07T01:49:20;18.65;;;7.05;;
23866;SDS011;12114;53.404;-1.502;2023-02-07T01:51:47;16.55;;;6.55;;
23866;SDS011;12114;53.404;-1.502;2023-02-07T01:54:13;14.05;;;6.68;;
23866;SDS011;12114;53.404;-1.502;2023-02-07T01:56:41;17.52;;;7.63;;
23866;SDS011;12114;53.404;-1.502;2023-02-07T01:59:07;16.80;;;6.63;;
23866;SDS011;12114;53.404;-1.502;2023-02-07T02:01:32;13.10;;;6.63;;
23866;SDS011;12114;53.404;-1.502;2023-02-07T02:03:58;14.73;;;7.18;;
23866;SDS011;12114;53.404;-1.502;2023-02-07T02:06:24;20.33;;;7.28;;
23866;SDS011;12114;53.404;-1.502;2023-02-07T02:08:55;13.68;;;6.53;;
23866;SDS011;12114;53.404;-1.502;2023-02-07T02:27:05;15.55;;;5.82;;
23866;SDS011;12114;53.404;-1.502;2023-02-07T02:42:18;15.38;;;6.57;;
23866;SDS011;12114;53.404;-1.502;2023-02-07T02:44:58;13.63;;;5.88;;
23866;SDS011;12114;53.404;-1.502;2023-02-07T02:47:25;14.95;;;6.13;;
23866;SDS011;12114;53.404;-1.502;2023-02-07T02:49:51;15.70;;;6.63;;
23866;SDS011;12114;53.404;-1.502;2023-02-07T02:52:17;11.27;;;6.07;;
23866;SDS011;12114;53.404;-1.502;2023-02-07T02:54:42;20.13;;;9.48;;
23866;SDS011;12114;53.404;-1.502;2023-02-07T03:02:09;15.15;;;7.43;;
23866;SDS011;12114;53.404;-1.502;2023-02-07T03:17:38;15.05;;;7.40;;
23866;SDS011;12114;53.404;-1.502;2023-02-07T03:20:08;16.85;;;7.38;;
23866;SDS011;12114;53.404;-1.502;2023-02-07T03:22:36;15.77;;;6.65;;
23866;SDS011;12114;53.404;-1.502;2023-02-07T03:25:03;14.52;;;6.97;;
23866;SDS011;12114;53.404;-1.502;2023-02-07T03:27:29;16.35;;;7.10;;
23866;SDS011;12114;53.404;-1.502;2023-02-07T03:29:57;16.15;;;6.13;;
23866;SDS011;12114;53.404;-1.502;2023-02-07T03:32:30;21.38;;;7.95;;
23866;SDS011;12114;53.404;-1.502;2023-02-07T03:35:02;17.70;;;8.07;;
23866;SDS011;12114;53.404;-1.502;2023-02-07T03:37:32;20.27;;;8.73;;
23866;SDS011;12114;53.404;-1.502;2023-02-07T03:39:59;17.23;;;8.98;;
23866;SDS011;12114;53.404;-1.502;2023-02-07T03:42:32;17.38;;;7.53;;
23866;SDS011;12114;53.404;-1.502;2023-02-07T03:44:59;18.90;;;8.20;;
23866;SDS011;12114;53.404;-1.502;2023-02-07T03:47:26;19.00;;;7.05;;
23866;SDS011;12114;53.404;-1.502;2023-02-07T03:49:51;20.48;;;8.98;;
23866;SDS011;12114;53.404;-1.502;2023-02-07T03:52:17;17.80;;;8.60;;
23866;SDS011;12114;53.404;-1.502;2023-02-07T03:54:42;19.92;;;10.55;;
23866;SDS011;12114;53.404;-1.502;2023-02-07T03:57:07;16.48;;;8.68;;
23866;SDS011;12114;53.404;-1.502;2023-02-07T03:59:32;18.73;;;9.77;;
23866;SDS011;12114;53.404;-1.502;2023-02-07T04:01:58;18.85;;;8.88;;
23866;SDS011;12114;53.404;-1.502;2023-02-07T04:04:23;18.42;;;8.85;;
23866;SDS011;12114;53.404;-1.502;2023-02-07T04:06:48;20.55;;;8.65;;
23866;SDS011;12114;53.404;-1.502;2023-02-07T04:09:14;19.65;;;8.95;;
23866;SDS011;12114;53.404;-1.502;2023-02-07T04:11:39;16.83;;;8.15;;
23866;SDS011;12114;53.404;-1.502;2023-02-07T04:14:05;18.95;;;7.88;;
23866;SDS011;12114;53.404;-1.502;2023-02-07T04:16:30;14.82;;;7.82;;
23866;SDS011;12114;53.404;-1.502;2023-02-07T04:18:55;24.63;;;9.18;;
23866;SDS011;12114;53.404;-1.502;2023-02-07T04:21:20;16.38;;;8.18;;
23866;SDS011;12114;53.404;-1.502;2023-02-07T04:23:46;19.67;;;7.97;;
23866;SDS011;12114;53.404;-1.502;2023-02-07T04:26:11;17.10;;;8.02;;
23866;SDS011;12114;53.404;-1.502;2023-02-07T04:28:36;22.35;;;9.48;;
23866;SDS011;12114;53.404;-1.502;2023-02-07T04:31:01;20.92;;;9.32;;
23866;SDS011;12114;53.404;-1.502;2023-02-07T04:33:27;18.77;;;8.77;;
23866;SDS011;12114;53.404;-1.502;2023-02-07T04:36:00;18.48;;;9.93;;
23866;SDS011;12114;53.404;-1.502;2023-02-07T04:38:25;19.83;;;8.95;;
23866;SDS011;12114;53.404;-1.502;2023-02-07T04:40:51;18.75;;;9.07;;
23866;SDS011;12114;53.404;-1.502;2023-02-07T04:43:16;16.92;;;8.68;;
23866;SDS011;12114;53.404;-1.502;2023-02-07T04:45:42;17.05;;;8.85;;
23866;SDS011;12114;53.404;-1.502;2023-02-07T04:48:09;22.85;;;9.98;;
23866;SDS011;12114;53.404;-1.502;2023-02-07T04:50:34;20.95;;;9.95;;
23866;SDS011;12114;53.404;-1.502;2023-02-07T04:52:59;19.85;;;10.48;;
23866;SDS011;12114;53.404;-1.502;2023-02-07T04:55:25;18.88;;;10.88;;
23866;SDS011;12114;53.404;-1.502;2023-02-07T04:57:50;20.38;;;9.60;;
23866;SDS011;12114;53.404;-1.502;2023-02-07T05:00:15;27.83;;;11.65;;
23866;SDS011;12114;53.404;-1.502;2023-02-07T05:02:41;19.63;;;10.20;;
23866;SDS011;12114;53.404;-1.502;2023-02-07T05:05:08;20.27;;;9.85;;
23866;SDS011;12114;53.404;-1.502;2023-02-07T05:07:33;22.35;;;10.07;;
23866;SDS011;12114;53.404;-1.502;2023-02-07T05:09:58;23.33;;;9.30;;
23866;SDS011;12114;53.404;-1.502;2023-02-07T05:12:24;18.95;;;9.73;;
23866;SDS011;12114;53.404;-1.502;2023-02-07T05:14:49;19.38;;;9.98;;
23866;SDS011;12114;53.404;-1.502;2023-02-07T05:17:14;29.95;;;10.27;;
23866;SDS011;12114;53.404;-1.502;2023-02-07T05:19:40;22.75;;;10.30;;
23866;SDS011;12114;53.404;-1.502;2023-02-07T05:22:05;23.90;;;10.63;;
23866;SDS011;12114;53.404;-1.502;2023-02-07T05:24:30;21.55;;;10.05;;
23866;SDS011;12114;53.404;-1.502;2023-02-07T05:26:56;21.05;;;10.88;;
23866;SDS011;12114;53.404;-1.502;2023-02-07T05:29:21;25.08;;;11.40;;
23866;SDS011;12114;53.404;-1.502;2023-02-07T05:31:46;23.73;;;13.05;;
23866;SDS011;12114;53.404;-1.502;2023-02-07T05:34:35;22.85;;;11.45;;
23866;SDS011;12114;53.404;-1.502;2023-02-07T05:37:01;23.63;;;11.82;;
23866;SDS011;12114;53.404;-1.502;2023-02-07T05:39:26;24.88;;;11.57;;
23866;SDS011;12114;53.404;-1.502;2023-02-07T05:41:51;23.67;;;10.68;;
23866;SDS011;12114;53.404;-1.502;2023-02-07T05:44:17;25.33;;;11.40;;
23866;SDS011;12114;53.404;-1.502;2023-02-07T05:46:42;25.48;;;10.52;;
23866;SDS011;12114;53.404;-1.502;2023-02-07T05:49:07;21.08;;;10.32;;
23866;SDS011;12114;53.404;-1.502;2023-02-07T05:51:32;26.25;;;10.40;;
23866;SDS011;12114;53.404;-1.502;2023-02-07T05:53:58;28.48;;;10.50;;
23866;SDS011;12114;53.404;-1.502;2023-02-07T05:56:23;20.92;;;9.43;;
23866;SDS011;12114;53.404;-1.502;2023-02-07T05:58:48;28.10;;;11.45;;
23866;SDS011;12114;53.404;-1.502;2023-02-07T06:01:14;23.15;;;10.70;;
23866;SDS011;12114;53.404;-1.502;2023-02-07T06:03:39;25.15;;;11.50;;
23866;SDS011;12114;53.404;-1.502;2023-02-07T06:06:04;22.45;;;10.63;;
23866;SDS011;12114;53.404;-1.502;2023-02-07T06:08:30;22.27;;;10.10;;
23866;SDS011;12114;53.404;-1.502;2023-02-07T06:10:55;23.95;;;11.27;;
23866;SDS011;12114;53.404;-1.502;2023-02-07T06:13:20;25.83;;;11.05;;
23866;SDS011;12114;53.404;-1.502;2023-02-07T06:15:46;21.83;;;10.80;;
23866;SDS011;12114;53.404;-1.502;2023-02-07T06:18:12;25.48;;;11.70;;
23866;SDS011;12114;53.404;-1.502;2023-02-07T06:20:37;23.50;;;11.45;;
23866;SDS011;12114;53.404;-1.502;2023-02-07T06:23:02;20.60;;;10.95;;
23866;SDS011;12114;53.404;-1.502;2023-02-07T06:25:27;28.23;;;11.82;;
23866;SDS011;12114;53.404;-1.502;2023-02-07T06:27:53;24.48;;;11.50;;
23866;SDS011;12114;53.404;-1.502;2023-02-07T06:30:18;33.03;;;14.00;;
23866;SDS011;12114;53.404;-1.502;2023-02-07T06:32:43;22.60;;;11.23;;
23866;SDS011;12114;53.404;-1.502;2023-02-07T06:35:08;23.92;;;11.85;;
23866;SDS011;12114;53.404;-1.502;2023-02-07T06:37:34;25.05;;;11.40;;
23866;SDS011;12114;53.404;-1.502;2023-02-07T06:39:59;20.95;;;10.98;;
23866;SDS011;12114;53.404;-1.502;2023-02-07T06:42:24;24.88;;;13.18;;
23866;SDS011;12114;53.404;-1.502;2023-02-07T06:44:49;22.75;;;11.50;;
23866;SDS011;12114;53.404;-1.502;2023-02-07T06:47:15;28.63;;;11.25;;
23866;SDS011;12114;53.404;-1.502;2023-02-07T06:49:40;23.52;;;10.68;;
23866;SDS011;12114;53.404;-1.502;2023-02-07T06:52:06;23.45;;;10.15;;
23866;SDS011;12114;53.404;-1.502;2023-02-07T06:54:31;22.92;;;11.52;;
23866;SDS011;12114;53.404;-1.502;2023-02-07T06:56:56;24.05;;;10.05;;
23866;SDS011;12114;53.404;-1.502;2023-02-07T06:59:21;24.52;;;11.13;;
23866;SDS011;12114;53.404;-1.502;2023-02-07T07:01:47;22.65;;;11.07;;
23866;SDS011;12114;53.404;-1.502;2023-02-07T07:04:12;25.17;;;11.60;;
23866;SDS011;12114;53.404;-1.502;2023-02-07T07:06:37;33.88;;;18.10;;
23866;SDS011;12114;53.404;-1.502;2023-02-07T07:09:02;32.63;;;16.80;;
23866;SDS011;12114;53.404;-1.502;2023-02-07T07:11:28;27.67;;;13.13;;
23866;SDS011;12114;53.404;-1.502;2023-02-07T07:13:53;27.95;;;12.43;;
23866;SDS011;12114;53.404;-1.502;2023-02-07T07:16:19;26.90;;;11.90;;
23866;SDS011;12114;53.404;-1.502;2023-02-07T07:18:44;24.85;;;10.40;;
23866;SDS011;12114;53.404;-1.502;2023-02-07T07:21:09;27.10;;;13.05;;
23866;SDS011;12114;53.404;-1.502;2023-02-07T07:23:35;27.63;;;13.20;;
23866;SDS011;12114;53.404;-1.502;2023-02-07T07:26:00;29.73;;;12.75;;
23866;SDS011;12114;53.404;-1.502;2023-02-07T07:28:25;29.23;;;11.38;;
23866;SDS011;12114;53.404;-1.502;2023-02-07T07:30:51;29.55;;;10.65;;
23866;SDS011;12114;53.404;-1.502;2023-02-07T07:33:16;28.05;;;10.00;;
23866;SDS011;12114;53.404;-1.502;2023-02-07T07:35:41;26.80;;;9.13;;
23866;SDS011;12114;53.404;-1.502;2023-02-07T07:38:07;26.15;;;10.50;;
23866;SDS011;12114;53.404;-1.502;2023-02-07T07:40:32;27.83;;;11.30;;
23866;SDS011;12114;53.404;-1.502;2023-02-07T07:42:57;27.55;;;10.43;;
23866;SDS011;12114;53.404;-1.502;2023-02-07T07:45:22;26.38;;;11.30;;
23866;SDS011;12114;53.404;-1.502;2023-02-07T07:47:48;25.17;;;9.68;;
23866;SDS011;12114;53.404;-1.502;2023-02-07T07:50:13;28.27;;;9.93;;
23866;SDS011;12114;53.404;-1.502;2023-02-07T07:52:38;24.92;;;10.40;;
23866;SDS011;12114;53.404;-1.502;2023-02-07T07:55:04;28.85;;;10.65;;
23866;SDS011;12114;53.404;-1.502;2023-02-07T07:57:29;27.75;;;9.80;;
23866;SDS011;12114;53.404;-1.502;2023-02-07T07:59:55;32.40;;;10.95;;
23866;SDS011;12114;53.404;-1.502;2023-02-07T08:02:20;26.67;;;11.43;;
23866;SDS011;12114;53.404;-1.502;2023-02-07T08:04:45;25.10;;;11.60;;
23866;SDS011;12114;53.404;-1.502;2023-02-07T08:07:11;28.67;;;12.98;;
23866;SDS011;12114;53.404;-1.502;2023-02-07T08:09:36;30.33;;;13.30;;
23866;SDS011;12114;53.404;-1.502;2023-02-07T08:12:01;28.10;;;12.68;;
23866;SDS011;12114;53.404;-1.502;2023-02-07T08:14:27;34.30;;;11.82;;
23866;SDS011;12114;53.404;-1.502;2023-02-07T08:16:52;23.77;;;10.45;;
23866;SDS011;12114;53.404;-1.502;2023-02-07T08:19:17;30.10;;;12.18;;
23866;SDS011;12114;53.404;-1.502;2023-02-07T08:21:43;30.67;;;11.57;;
23866;SDS011;12114;53.404;-1.502;2023-02-07T08:24:08;28.33;;;10.38;;
23866;SDS011;12114;53.404;-1.502;2023-02-07T08:26:33;21.13;;;9.05;;
23866;SDS011;12114;53.404;-1.502;2023-02-07T08:28:58;25.67;;;9.32;;
23866;SDS011;12114;53.404;-1.502;2023-02-07T08:31:24;21.40;;;9.55;;
23866;SDS011;12114;53.404;-1.502;2023-02-07T08:33:49;28.45;;;10.18;;
23866;SDS011;12114;53.404;-1.502;2023-02-07T08:36:14;20.48;;;9.57;;
23866;SDS011;12114;53.404;-1.502;2023-02-07T08:38:39;29.60;;;10.50;;
23866;SDS011;12114;53.404;-1.502;2023-02-07T08:41:05;30.42;;;10.40;;
23866;SDS011;12114;53.404;-1.502;2023-02-07T08:43:30;27.27;;;9.95;;
23866;SDS011;12114;53.404;-1.502;2023-02-07T08:45:55;32.97;;;9.80;;
23866;SDS011;12114;53.404;-1.502;2023-02-07T08:48:21;23.30;;;9.07;;
23866;SDS011;12114;53.404;-1.502;2023-02-07T08:50:46;25.52;;;10.40;;
23866;SDS011;12114;53.404;-1.502;2023-02-07T08:53:11;28.55;;;10.98;;
23866;SDS011;12114;53.404;-1.502;2023-02-07T08:55:40;25.80;;;9.85;;
23866;SDS011;12114;53.404;-1.502;2023-02-07T08:58:06;22.48;;;10.15;;
23866;SDS011;12114;53.404;-1.502;2023-02-07T09:00:31;27.20;;;12.63;;
23866;SDS011;12114;53.404;-1.502;2023-02-07T09:02:59;34.05;;;13.52;;
23866;SDS011;12114;53.404;-1.502;2023-02-07T09:05:24;25.60;;;13.52;;
23866;SDS011;12114;53.404;-1.502;2023-02-07T09:07:49;26.77;;;11.40;;
23866;SDS011;12114;53.404;-1.502;2023-02-07T09:10:15;29.45;;;9.70;;
23866;SDS011;12114;53.404;-1.502;2023-02-07T09:12:40;22.88;;;7.65;;
23866;SDS011;12114;53.404;-1.502;2023-02-07T09:15:05;21.63;;;6.82;;
23866;SDS011;12114;53.404;-1.502;2023-02-07T09:17:31;20.20;;;6.50;;
23866;SDS011;12114;53.404;-1.502;2023-02-07T09:19:56;18.05;;;6.35;;
23866;SDS011;12114;53.404;-1.502;2023-02-07T09:22:21;22.35;;;6.47;;
23866;SDS011;12114;53.404;-1.502;2023-02-07T09:24:47;15.63;;;6.45;;
23866;SDS011;12114;53.404;-1.502;2023-02-07T09:27:13;20.65;;;6.78;;
23866;SDS011;12114;53.404;-1.502;2023-02-07T09:29:38;19.08;;;7.20;;
23866;SDS011;12114;53.404;-1.502;2023-02-07T09:32:04;13.52;;;7.53;;
23866;SDS011;12114;53.404;-1.502;2023-02-07T09:34:31;20.90;;;7.68;;
23866;SDS011;12114;53.404;-1.502;2023-02-07T09:36:56;16.20;;;6.55;;
23866;SDS011;12114;53.404;-1.502;2023-02-07T09:39:21;17.90;;;6.95;;
23866;SDS011;12114;53.404;-1.502;2023-02-07T09:45:09;19.42;;;6.95;;
23866;SDS011;12114;53.404;-1.502;2023-02-07T09:47:27;13.68;;;5.55;;
23866;SDS011;12114;53.404;-1.502;2023-02-07T09:50:14;12.02;;;6.72;;
23866;SDS011;12114;53.404;-1.502;2023-02-07T09:52:44;19.17;;;6.03;;
23866;SDS011;12114;53.404;-1.502;2023-02-07T09:55:17;16.95;;;5.63;;
23866;SDS011;12114;53.404;-1.502;2023-02-07T09:57:44;21.42;;;5.45;;
23866;SDS011;12114;53.404;-1.502;2023-02-07T10:02:56;23.75;;;5.90;;
23866;SDS011;12114;53.404;-1.502;2023-02-07T10:05:26;20.45;;;5.88;;
23866;SDS011;12114;53.404;-1.502;2023-02-07T10:07:53;17.15;;;5.88;;
23866;SDS011;12114;53.404;-1.502;2023-02-07T10:10:21;23.48;;;5.80;;
23866;SDS011;12114;53.404;-1.502;2023-02-07T10:12:56;31.20;;;6.93;;
23866;SDS011;12114;53.404;-1.502;2023-02-07T10:20:32;17.58;;;6.28;;
23866;SDS011;12114;53.404;-1.502;2023-02-07T10:28:06;19.75;;;5.47;;
23866;SDS011;12114;53.404;-1.502;2023-02-07T10:30:38;17.58;;;5.63;;
23866;SDS011;12114;53.404;-1.502;2023-02-07T10:33:11;16.00;;;5.47;;
23866;SDS011;12114;53.404;-1.502;2023-02-07T10:35:38;18.95;;;6.05;;
23866;SDS011;12114;53.404;-1.502;2023-02-07T10:38:03;17.92;;;5.68;;
23866;SDS011;12114;53.404;-1.502;2023-02-07T10:40:36;21.00;;;5.30;;
23866;SDS011;12114;53.404;-1.502;2023-02-07T10:43:17;22.35;;;5.22;;
23866;SDS011;12114;53.404;-1.502;2023-02-07T10:45:46;17.67;;;4.72;;
23866;SDS011;12114;53.404;-1.502;2023-02-07T10:48:15;19.35;;;4.90;;
23866;SDS011;12114;53.404;-1.502;2023-02-07T10:50:40;15.20;;;4.53;;
23866;SDS011;12114;53.404;-1.502;2023-02-07T10:53:05;13.43;;;4.32;;
23866;SDS011;12114;53.404;-1.502;2023-02-07T10:55:41;20.05;;;4.22;;
23866;SDS011;12114;53.404;-1.502;2023-02-07T10:58:12;19.85;;;3.70;;
23866;SDS011;12114;53.404;-1.502;2023-02-07T11:00:38;19.88;;;4.43;;
23866;SDS011;12114;53.404;-1.502;2023-02-07T11:03:04;17.80;;;5.30;;
23866;SDS011;12114;53.404;-1.502;2023-02-07T11:05:32;16.55;;;5.47;;
23866;SDS011;12114;53.404;-1.502;2023-02-07T11:10:40;20.77;;;6.22;;
23866;SDS011;12114;53.404;-1.502;2023-02-07T11:13:13;25.73;;;6.35;;
23866;SDS011;12114;53.404;-1.502;2023-02-07T11:18:22;19.42;;;6.00;;
23866;SDS011;12114;53.404;-1.502;2023-02-07T11:20:49;17.58;;;5.88;;
23866;SDS011;12114;53.404;-1.502;2023-02-07T11:23:16;22.33;;;5.38;;
23866;SDS011;12114;53.404;-1.502;2023-02-07T11:25:42;16.67;;;4.85;;
23866;SDS011;12114;53.404;-1.502;2023-02-07T11:28:14;19.05;;;4.57;;
23866;SDS011;12114;53.404;-1.502;2023-02-07T11:30:42;19.50;;;4.95;;
23866;SDS011;12114;53.404;-1.502;2023-02-07T11:33:12;18.08;;;4.28;;
23866;SDS011;12114;53.404;-1.502;2023-02-07T11:35:59;17.23;;;4.22;;
23866;SDS011;12114;53.404;-1.502;2023-02-07T11:38:24;17.08;;;3.70;;
23866;SDS011;12114;53.404;-1.502;2023-02-07T11:40:52;12.10;;;3.58;;
23866;SDS011;12114;53.404;-1.502;2023-02-07T11:43:22;13.15;;;3.15;;
23866;SDS011;12114;53.404;-1.502;2023-02-07T11:45:49;14.88;;;3.75;;
23866;SDS011;12114;53.404;-1.502;2023-02-07T11:48:20;13.80;;;3.47;;
23866;SDS011;12114;53.404;-1.502;2023-02-07T11:50:47;15.75;;;3.40;;
23866;SDS011;12114;53.404;-1.502;2023-02-07T11:53:22;20.98;;;4.18;;
23866;SDS011;12114;53.404;-1.502;2023-02-07T11:55:49;15.25;;;3.10;;
23866;SDS011;12114;53.404;-1.502;2023-02-07T11:58:30;17.17;;;3.53;;
23866;SDS011;12114;53.404;-1.502;2023-02-07T12:00:55;21.75;;;3.97;;
23866;SDS011;12114;53.404;-1.502;2023-02-07T12:03:25;19.85;;;4.28;;
23866;SDS011;12114;53.404;-1.502;2023-02-07T12:05:52;20.27;;;4.45;;
23866;SDS011;12114;53.404;-1.502;2023-02-07T12:08:22;17.83;;;4.15;;
23866;SDS011;12114;53.404;-1.502;2023-02-07T12:10:48;12.55;;;3.53;;
23866;SDS011;12114;53.404;-1.502;2023-02-07T12:13:17;19.80;;;4.28;;
23866;SDS011;12114;53.404;-1.502;2023-02-07T12:20:52;13.82;;;3.65;;
23866;SDS011;12114;53.404;-1.502;2023-02-07T12:23:31;17.67;;;5.00;;
23866;SDS011;12114;53.404;-1.502;2023-02-07T12:26:02;25.90;;;9.05;;
23866;SDS011;12114;53.404;-1.502;2023-02-07T12:28:36;47.20;;;20.45;;
23866;SDS011;12114;53.404;-1.502;2023-02-07T12:31:06;68.00;;;31.05;;
23866;SDS011;12114;53.404;-1.502;2023-02-07T12:33:41;59.03;;;27.00;;
23866;SDS011;12114;53.404;-1.502;2023-02-07T12:36:13;60.35;;;30.48;;
23866;SDS011;12114;53.404;-1.502;2023-02-07T12:41:07;49.65;;;22.17;;
23866;SDS011;12114;53.404;-1.502;2023-02-07T13:25:24;51.45;;;27.42;;
23866;SDS011;12114;53.404;-1.502;2023-02-07T13:27:51;48.53;;;26.70;;
23866;SDS011;12114;53.404;-1.502;2023-02-07T13:30:18;45.58;;;22.17;;
23866;SDS011;12114;53.404;-1.502;2023-02-07T13:32:45;42.22;;;20.60;;
23866;SDS011;12114;53.404;-1.502;2023-02-07T13:35:12;33.38;;;14.40;;
23866;SDS011;12114;53.404;-1.502;2023-02-07T13:40:20;19.33;;;7.88;;
23866;SDS011;12114;53.404;-1.502;2023-02-07T13:42:53;17.83;;;6.93;;
23866;SDS011;12114;53.404;-1.502;2023-02-07T13:52:50;14.65;;;6.30;;
23866;SDS011;12114;53.404;-1.502;2023-02-07T13:55:26;17.75;;;6.30;;
23866;SDS011;12114;53.404;-1.502;2023-02-07T13:57:52;17.10;;;5.10;;
23866;SDS011;12114;53.404;-1.502;2023-02-07T14:00:57;18.95;;;5.05;;
23866;SDS011;12114;53.404;-1.502;2023-02-07T14:03:22;18.73;;;4.50;;
23866;SDS011;12114;53.404;-1.502;2023-02-07T14:05:51;17.38;;;5.38;;
23866;SDS011;12114;53.404;-1.502;2023-02-07T14:10:49;16.27;;;5.20;;
23866;SDS011;12114;53.404;-1.502;2023-02-07T14:18:31;15.02;;;5.50;;
23866;SDS011;12114;53.404;-1.502;2023-02-07T14:21:00;14.85;;;5.20;;
23866;SDS011;12114;53.404;-1.502;2023-02-07T14:23:33;16.60;;;6.28;;
23866;SDS011;12114;53.404;-1.502;2023-02-07T14:29:16;18.88;;;4.90;;
23866;SDS011;12114;53.404;-1.502;2023-02-07T14:31:46;12.02;;;4.90;;
23866;SDS011;12114;53.404;-1.502;2023-02-07T14:34:13;15.48;;;5.85;;
23866;SDS011;12114;53.404;-1.502;2023-02-07T14:36:39;15.13;;;5.15;;
23866;SDS011;12114;53.404;-1.502;2023-02-07T14:41:35;18.65;;;5.05;;
23866;SDS011;12114;53.404;-1.502;2023-02-07T14:44:01;16.95;;;5.78;;
23866;SDS011;12114;53.404;-1.502;2023-02-07T14:46:32;26.92;;;6.40;;
23866;SDS011;12114;53.404;-1.502;2023-02-07T14:49:03;20.10;;;7.15;;
23866;SDS011;12114;53.404;-1.502;2023-02-07T14:51:45;25.52;;;7.93;;
23866;SDS011;12114;53.404;-1.502;2023-02-07T14:54:14;20.60;;;7.80;;
23866;SDS011;12114;53.404;-1.502;2023-02-07T14:59:05;23.38;;;7.13;;
23866;SDS011;12114;53.404;-1.502;2023-02-07T15:01:32;25.42;;;7.30;;
23866;SDS011;12114;53.404;-1.502;2023-02-07T15:04:02;20.88;;;7.35;;
23866;SDS011;12114;53.404;-1.502;2023-02-07T15:06:28;18.75;;;7.03;;
23866;SDS011;12114;53.404;-1.502;2023-02-07T15:08:59;19.60;;;7.63;;
23866;SDS011;12114;53.404;-1.502;2023-02-07T15:11:26;21.27;;;7.85;;
23866;SDS011;12114;53.404;-1.502;2023-02-07T15:13:56;27.10;;;7.82;;
23866;SDS011;12114;53.404;-1.502;2023-02-07T15:16:32;19.67;;;7.38;;
23866;SDS011;12114;53.404;-1.502;2023-02-07T15:21:42;20.80;;;7.20;;
23866;SDS011;12114;53.404;-1.502;2023-02-07T15:24:15;20.77;;;7.43;;
23866;SDS011;12114;53.404;-1.502;2023-02-07T15:26:41;18.58;;;7.45;;
23866;SDS011;12114;53.404;-1.502;2023-02-07T15:29:21;25.65;;;9.10;;
23866;SDS011;12114;53.404;-1.502;2023-02-07T15:31:47;27.73;;;10.38;;
23866;SDS011;12114;53.404;-1.502;2023-02-07T15:34:45;24.08;;;10.18;;
23866;SDS011;12114;53.404;-1.502;2023-02-07T15:37:14;23.00;;;9.93;;
23866;SDS011;12114;53.404;-1.502;2023-02-07T15:39:39;22.55;;;8.85;;
23866;SDS011;12114;53.404;-1.502;2023-02-07T15:42:06;27.27;;;10.20;;
23866;SDS011;12114;53.404;-1.502;2023-02-07T15:44:41;25.67;;;10.02;;
23866;SDS011;12114;53.404;-1.502;2023-02-07T15:47:11;27.52;;;9.77;;
23866;SDS011;12114;53.404;-1.502;2023-02-07T15:49:40;23.75;;;9.77;;
23866;SDS011;12114;53.404;-1.502;2023-02-07T15:52:18;31.45;;;10.68;;
23866;SDS011;12114;53.404;-1.502;2023-02-07T15:54:47;27.38;;;10.13;;
23866;SDS011;12114;53.404;-1.502;2023-02-07T15:59:45;23.92;;;9.45;;
23866;SDS011;12114;53.404;-1.502;2023-02-07T16:02:19;21.30;;;10.05;;
23866;SDS011;12114;53.404;-1.502;2023-02-07T16:04:45;26.02;;;9.55;;
23866;SDS011;12114;53.404;-1.502;2023-02-07T16:07:11;23.00;;;9.43;;
23866;SDS011;12114;53.404;-1.502;2023-02-07T16:09:41;19.10;;;8.20;;
23866;SDS011;12114;53.404;-1.502;2023-02-07T16:14:51;24.05;;;9.18;;
23866;SDS011;12114;53.404;-1.502;2023-02-07T16:17:23;19.15;;;8.90;;
23866;SDS011;12114;53.404;-1.502;2023-02-07T16:19:49;28.50;;;10.32;;
23866;SDS011;12114;53.404;-1.502;2023-02-07T16:22:15;28.08;;;9.77;;
23866;SDS011;12114;53.404;-1.502;2023-02-07T16:24:42;33.90;;;10.70;;
23866;SDS011;12114;53.404;-1.502;2023-02-07T16:27:15;30.05;;;13.35;;
23866;SDS011;12114;53.404;-1.502;2023-02-07T16:29:41;28.60;;;13.23;;
23866;SDS011;12114;53.404;-1.502;2023-02-07T16:32:08;30.25;;;9.75;;
23866;SDS011;12114;53.404;-1.502;2023-02-07T16:34:35;25.13;;;8.63;;
23866;SDS011;12114;53.404;-1.502;2023-02-07T16:37:00;24.75;;;8.05;;
23866;SDS011;12114;53.404;-1.502;2023-02-07T16:39:25;24.90;;;7.72;;
23866;SDS011;12114;53.404;-1.502;2023-02-07T16:41:51;18.08;;;6.10;;
23866;SDS011;12114;53.404;-1.502;2023-02-07T16:44:19;28.30;;;6.20;;
23866;SDS011;12114;53.404;-1.502;2023-02-07T16:46:47;20.80;;;5.85;;
23866;SDS011;12114;53.404;-1.502;2023-02-07T16:49:16;25.05;;;5.72;;
23866;SDS011;12114;53.404;-1.502;2023-02-07T16:51:42;20.67;;;6.70;;
23866;SDS011;12114;53.404;-1.502;2023-02-07T16:54:07;16.95;;;5.28;;